weather.gov     
National Weather Service

Terminal Aerodrome Forecast
NWS Homepage
This page is being discontinued on March 12, 2014.
The same data is available at this site. Please update your bookmarks.
Thank you, and we apologize for the inconvenience.
Please send an email to SR-SRH.Webmaster@noaa.gov with any concerns.


Current Version
Previous Version:    01  02  03  04  05  06  07  08  09  10  11  12  13  14  15  16  17  18  19  20  21  22  23  24  25  26  27  28  
[Printable]
137
FTAK31 PAJN 180500
TAFAKT
TAF
PAKT 180538Z 1806/1906 16006KT P6SM VCSH OVC035
     FM180700 15011KT P6SM -SHRA SCT025 OVC040
     FM181400 15015G23KT P6SM -RA BKN025 OVC040 WS020/14035KT
     FM181900 15020G35KT 5SM -RA BR BKN025 OVC040 WS020/14040KT
     FM190000 15020G30KT 3SM -RA BR BKN020 OVC030 WS020/14040KT
      AMD LTD TO CLD VIS AND WIND 1806/1815=


U.S. Dept. of Commerce
NOAA National Weather Service
1325 East West Highway
Silver Spring, MD 20910
E-mail: w-nws.webmaster@noaa.gov
Page last modified: May 16, 2007
NATIONAL WEATHER SERVICE: for Safety, for Work, for Fun - FOR LIFE